sensor_id;sensor_type;location;lat;lon;timestamp;P1;durP1;ratioP1;P2;durP2;ratioP2
74670;SDS011;63196;39.564;2.628;2023-05-09T18:17:04;5.10;;;2.00;;
74670;SDS011;63196;39.564;2.628;2023-05-09T18:20:02;6.60;;;1.80;;
74670;SDS011;63196;39.564;2.628;2023-05-09T18:25:58;4.10;;;1.40;;
74670;SDS011;63196;39.564;2.628;2023-05-09T18:28:56;3.60;;;1.30;;
74670;SDS011;63196;39.564;2.628;2023-05-09T18:31:54;5.40;;;1.60;;
74670;SDS011;63196;39.564;2.628;2023-05-09T18:34:52;3.60;;;1.40;;
74670;SDS011;63196;39.564;2.628;2023-05-09T18:37:50;3.80;;;1.40;;
74670;SDS011;63196;39.564;2.628;2023-05-09T18:40:48;3.50;;;1.30;;
74670;SDS011;63196;39.564;2.628;2023-05-09T18:43:45;4.40;;;1.40;;
74670;SDS011;63196;39.564;2.628;2023-05-09T18:46:42;2.60;;;1.30;;
74670;SDS011;63196;39.564;2.628;2023-05-09T18:49:40;4.10;;;1.50;;
74670;SDS011;63196;39.564;2.628;2023-05-09T18:52:38;3.60;;;1.40;;
74670;SDS011;63196;39.564;2.628;2023-05-09T18:55:36;5.10;;;1.00;;
74670;SDS011;63196;39.564;2.628;2023-05-09T18:58:35;3.20;;;1.20;;
74670;SDS011;63196;39.564;2.628;2023-05-09T19:01:33;3.60;;;1.10;;
74670;SDS011;63196;39.564;2.628;2023-05-09T19:04:30;4.10;;;1.30;;
74670;SDS011;63196;39.564;2.628;2023-05-09T19:07:27;5.60;;;1.40;;
74670;SDS011;63196;39.564;2.628;2023-05-09T19:10:24;4.30;;;1.70;;
74670;SDS011;63196;39.564;2.628;2023-05-09T19:13:22;3.30;;;1.40;;
74670;SDS011;63196;39.564;2.628;2023-05-09T19:16:21;3.90;;;1.40;;
74670;SDS011;63196;39.564;2.628;2023-05-09T19:19:19;5.30;;;1.70;;
74670;SDS011;63196;39.564;2.628;2023-05-09T19:22:17;2.70;;;1.20;;
74670;SDS011;63196;39.564;2.628;2023-05-09T19:25:16;6.00;;;1.60;;
74670;SDS011;63196;39.564;2.628;2023-05-09T19:28:14;3.50;;;1.30;;
74670;SDS011;63196;39.564;2.628;2023-05-09T19:31:12;5.90;;;1.40;;
74670;SDS011;63196;39.564;2.628;2023-05-09T19:34:10;3.70;;;1.30;;
74670;SDS011;63196;39.564;2.628;2023-05-09T19:37:08;3.90;;;1.70;;
74670;SDS011;63196;39.564;2.628;2023-05-09T19:40:05;4.70;;;1.50;;
74670;SDS011;63196;39.564;2.628;2023-05-09T19:46:01;6.50;;;1.30;;
74670;SDS011;63196;39.564;2.628;2023-05-09T19:48:59;7.10;;;1.80;;
74670;SDS011;63196;39.564;2.628;2023-05-09T19:51:57;6.00;;;1.90;;
74670;SDS011;63196;39.564;2.628;2023-05-09T20:02:57;4.60;;;1.50;;
74670;SDS011;63196;39.564;2.628;2023-05-09T20:05:22;4.10;;;1.70;;
74670;SDS011;63196;39.564;2.628;2023-05-09T20:07:47;3.10;;;1.40;;
74670;SDS011;63196;39.564;2.628;2023-05-09T20:10:13;2.50;;;1.10;;
74670;SDS011;63196;39.564;2.628;2023-05-09T20:12:39;5.60;;;1.90;;
74670;SDS011;63196;39.564;2.628;2023-05-09T20:15:05;3.20;;;1.30;;
74670;SDS011;63196;39.564;2.628;2023-05-09T20:17:32;3.50;;;1.40;;
74670;SDS011;63196;39.564;2.628;2023-05-09T20:19:57;3.50;;;1.40;;
74670;SDS011;63196;39.564;2.628;2023-05-09T20:22:23;5.30;;;1.70;;
74670;SDS011;63196;39.564;2.628;2023-05-09T20:24:48;3.50;;;1.20;;
74670;SDS011;63196;39.564;2.628;2023-05-09T20:27:13;3.50;;;1.00;;
74670;SDS011;63196;39.564;2.628;2023-05-09T20:29:39;2.40;;;1.00;;
74670;SDS011;63196;39.564;2.628;2023-05-09T20:32:04;2.50;;;0.90;;
74670;SDS011;63196;39.564;2.628;2023-05-09T20:34:30;4.30;;;1.20;;
74670;SDS011;63196;39.564;2.628;2023-05-09T20:36:55;3.80;;;1.40;;
74670;SDS011;63196;39.564;2.628;2023-05-09T20:39:21;4.40;;;1.60;;
74670;SDS011;63196;39.564;2.628;2023-05-09T20:41:47;2.70;;;1.20;;
74670;SDS011;63196;39.564;2.628;2023-05-09T20:44:13;3.70;;;1.30;;
74670;SDS011;63196;39.564;2.628;2023-05-09T20:46:39;3.10;;;0.90;;
74670;SDS011;63196;39.564;2.628;2023-05-09T20:49:04;3.30;;;1.20;;
74670;SDS011;63196;39.564;2.628;2023-05-09T20:51:30;2.90;;;1.10;;
74670;SDS011;63196;39.564;2.628;2023-05-09T20:53:56;3.00;;;0.90;;
74670;SDS011;63196;39.564;2.628;2023-05-09T20:56:21;3.40;;;1.40;;
74670;SDS011;63196;39.564;2.628;2023-05-09T20:58:47;3.50;;;1.30;;
74670;SDS011;63196;39.564;2.628;2023-05-09T21:01:12;5.10;;;1.60;;
74670;SDS011;63196;39.564;2.628;2023-05-09T21:03:37;5.00;;;1.80;;
74670;SDS011;63196;39.564;2.628;2023-05-09T21:06:03;4.30;;;1.80;;
74670;SDS011;63196;39.564;2.628;2023-05-09T21:08:28;3.40;;;1.40;;
74670;SDS011;63196;39.564;2.628;2023-05-09T21:10:54;4.40;;;1.20;;
74670;SDS011;63196;39.564;2.628;2023-05-09T21:13:19;3.90;;;1.30;;
74670;SDS011;63196;39.564;2.628;2023-05-09T21:15:47;5.10;;;1.90;;
74670;SDS011;63196;39.564;2.628;2023-05-09T21:18:12;4.30;;;2.00;;
74670;SDS011;63196;39.564;2.628;2023-05-09T21:20:38;4.40;;;1.60;;
74670;SDS011;63196;39.564;2.628;2023-05-09T21:23:03;6.10;;;2.10;;
74670;SDS011;63196;39.564;2.628;2023-05-09T21:25:28;4.20;;;1.90;;
74670;SDS011;63196;39.564;2.628;2023-05-09T21:27:54;4.30;;;2.00;;
74670;SDS011;63196;39.564;2.628;2023-05-09T21:30:20;5.40;;;2.40;;
74670;SDS011;63196;39.564;2.628;2023-05-09T21:32:45;6.90;;;2.70;;
74670;SDS011;63196;39.564;2.628;2023-05-09T21:35:11;6.00;;;2.20;;
74670;SDS011;63196;39.564;2.628;2023-05-09T21:37:37;6.20;;;2.80;;
74670;SDS011;63196;39.564;2.628;2023-05-09T21:40:03;5.20;;;2.20;;
74670;SDS011;63196;39.564;2.628;2023-05-09T21:42:29;4.70;;;2.30;;
74670;SDS011;63196;39.564;2.628;2023-05-09T21:44:54;6.30;;;2.50;;
74670;SDS011;63196;39.564;2.628;2023-05-09T21:47:20;5.30;;;2.20;;
74670;SDS011;63196;39.564;2.628;2023-05-09T21:49:45;6.00;;;2.30;;
74670;SDS011;63196;39.564;2.628;2023-05-09T21:52:11;5.90;;;2.60;;
74670;SDS011;63196;39.564;2.628;2023-05-09T21:54:36;6.20;;;3.00;;
74670;SDS011;63196;39.564;2.628;2023-05-09T21:57:01;5.70;;;2.30;;
74670;SDS011;63196;39.564;2.628;2023-05-09T21:59:27;7.70;;;2.00;;
74670;SDS011;63196;39.564;2.628;2023-05-09T22:01:52;4.20;;;1.70;;
74670;SDS011;63196;39.564;2.628;2023-05-09T22:04:17;5.00;;;2.00;;
74670;SDS011;63196;39.564;2.628;2023-05-09T22:06:43;4.60;;;2.40;;
74670;SDS011;63196;39.564;2.628;2023-05-09T22:09:08;5.90;;;2.50;;
74670;SDS011;63196;39.564;2.628;2023-05-09T22:11:34;8.60;;;2.40;;
74670;SDS011;63196;39.564;2.628;2023-05-09T22:13:59;7.10;;;3.10;;
74670;SDS011;63196;39.564;2.628;2023-05-09T22:16:25;6.60;;;2.60;;
74670;SDS011;63196;39.564;2.628;2023-05-09T22:18:50;7.70;;;2.60;;
74670;SDS011;63196;39.564;2.628;2023-05-09T22:21:16;5.80;;;2.10;;
74670;SDS011;63196;39.564;2.628;2023-05-09T22:23:41;7.90;;;2.50;;
74670;SDS011;63196;39.564;2.628;2023-05-09T22:26:07;7.30;;;3.00;;
74670;SDS011;63196;39.564;2.628;2023-05-09T22:28:32;5.60;;;2.20;;
74670;SDS011;63196;39.564;2.628;2023-05-09T22:30:57;4.30;;;2.10;;
74670;SDS011;63196;39.564;2.628;2023-05-09T22:33:23;5.70;;;2.30;;
74670;SDS011;63196;39.564;2.628;2023-05-09T22:35:48;5.20;;;2.30;;
74670;SDS011;63196;39.564;2.628;2023-05-09T22:38:14;5.80;;;1.90;;
74670;SDS011;63196;39.564;2.628;2023-05-09T22:40:39;6.00;;;2.00;;
74670;SDS011;63196;39.564;2.628;2023-05-09T22:43:04;4.50;;;2.10;;
74670;SDS011;63196;39.564;2.628;2023-05-09T22:45:30;6.10;;;1.90;;
74670;SDS011;63196;39.564;2.628;2023-05-09T22:47:55;3.80;;;1.50;;
74670;SDS011;63196;39.564;2.628;2023-05-09T22:50:21;5.20;;;2.00;;
74670;SDS011;63196;39.564;2.628;2023-05-09T22:52:47;5.90;;;1.60;;
74670;SDS011;63196;39.564;2.628;2023-05-09T22:55:12;4.70;;;1.50;;
74670;SDS011;63196;39.564;2.628;2023-05-09T22:57:39;5.10;;;1.90;;
74670;SDS011;63196;39.564;2.628;2023-05-09T23:00:04;4.40;;;1.70;;
74670;SDS011;63196;39.564;2.628;2023-05-09T23:02:30;3.90;;;1.70;;
74670;SDS011;63196;39.564;2.628;2023-05-09T23:04:55;5.70;;;1.80;;
74670;SDS011;63196;39.564;2.628;2023-05-09T23:07:21;5.80;;;2.10;;
74670;SDS011;63196;39.564;2.628;2023-05-09T23:09:46;5.50;;;1.80;;
74670;SDS011;63196;39.564;2.628;2023-05-09T23:12:12;3.80;;;1.10;;
74670;SDS011;63196;39.564;2.628;2023-05-09T23:14:37;6.20;;;1.70;;
74670;SDS011;63196;39.564;2.628;2023-05-09T23:17:03;5.50;;;2.10;;
74670;SDS011;63196;39.564;2.628;2023-05-09T23:19:28;6.50;;;2.00;;
74670;SDS011;63196;39.564;2.628;2023-05-09T23:21:53;3.10;;;1.40;;
74670;SDS011;63196;39.564;2.628;2023-05-09T23:24:19;3.50;;;1.20;;
74670;SDS011;63196;39.564;2.628;2023-05-09T23:26:45;4.70;;;1.50;;
74670;SDS011;63196;39.564;2.628;2023-05-09T23:29:10;3.80;;;1.70;;
74670;SDS011;63196;39.564;2.628;2023-05-09T23:31:36;4.80;;;1.70;;
74670;SDS011;63196;39.564;2.628;2023-05-09T23:34:01;4.00;;;1.60;;
74670;SDS011;63196;39.564;2.628;2023-05-09T23:36:26;5.40;;;1.80;;
74670;SDS011;63196;39.564;2.628;2023-05-09T23:38:52;6.30;;;2.10;;
74670;SDS011;63196;39.564;2.628;2023-05-09T23:41:17;4.30;;;1.20;;
74670;SDS011;63196;39.564;2.628;2023-05-09T23:43:43;6.10;;;1.60;;
74670;SDS011;63196;39.564;2.628;2023-05-09T23:46:08;3.30;;;1.20;;
74670;SDS011;63196;39.564;2.628;2023-05-09T23:48:34;3.20;;;1.40;;
74670;SDS011;63196;39.564;2.628;2023-05-09T23:50:59;4.60;;;1.30;;
74670;SDS011;63196;39.564;2.628;2023-05-09T23:53:24;5.00;;;1.70;;
74670;SDS011;63196;39.564;2.628;2023-05-09T23:55:50;3.50;;;1.20;;
74670;SDS011;63196;39.564;2.628;2023-05-09T23:58:15;3.90;;;1.40;;
